Time;durP1;ratioP1;P1;durP2;ratioP2;P2;SDS_P1;SDS_P2;PMS_P1;PMS_P2;Temp;Humidity;BMP_temperature;BMP_pressure;BME280_temperature;BME280_humidity;BME280_pressure;Samples;Min_cycle;Max_cycle;Signal;HPM_P1;HPM_P2
2021/06/18 00:01:35;;;;;;;7.15;6.47;;;24.10;91.10;;;;;;5088712;28;20051;-39
2021/06/18 00:04:01;;;;;;;11.18;8.32;;;24.10;91.20;;;;;;5077255;28;20106;-39
2021/06/18 00:06:26;;;;;;;8.68;7.88;;;24.00;91.40;;;;;;5090228;28;20032;-40
2021/06/18 00:08:52;;;;;;;9.88;8.85;;;24.00;91.50;;;;;;5076554;28;20571;-39
2021/06/18 00:11:17;;;;;;;10.65;9.65;;;23.90;91.70;;;;;;5089235;28;20156;-39
2021/06/18 00:13:43;;;;;;;11.85;9.40;;;23.80;91.80;;;;;;5077307;28;20410;-37
2021/06/18 00:16:09;;;;;;;11.05;9.80;;;23.80;91.90;;;;;;5089132;28;20112;-38
2021/06/18 00:18:34;;;;;;;12.18;10.98;;;23.80;92.00;;;;;;5079663;28;20429;-40
2021/06/18 00:21:00;;;;;;;10.32;9.20;;;23.70;92.10;;;;;;5085934;28;20405;-40
2021/06/18 00:23:26;;;;;;;12.52;10.90;;;23.70;92.20;;;;;;5082570;28;20025;-40
2021/06/18 00:25:51;;;;;;;13.57;12.18;;;23.70;92.30;;;;;;5083220;28;20070;-39
2021/06/18 00:28:17;;;;;;;13.43;11.00;;;23.60;92.50;;;;;;5084964;28;20020;-38
2021/06/18 00:30:43;;;;;;;13.18;11.60;;;23.60;92.60;;;;;;5080952;28;20035;-38
2021/06/18 00:33:09;;;;;;;14.40;12.75;;;23.60;92.70;;;;;;5086686;28;20363;-38
2021/06/18 00:35:35;;;;;;;11.93;10.40;;;23.50;92.80;;;;;;5078804;28;20425;-38
2021/06/18 00:38:00;;;;;;;12.25;10.90;;;23.50;92.90;;;;;;5087625;28;20127;-40
2021/06/18 00:40:28;;;;;;;10.88;9.50;;;23.50;92.90;;;;;;5077532;28;20036;-39
2021/06/18 00:42:54;;;;;;;12.98;11.68;;;23.50;93.00;;;;;;5088044;28;20038;-40
2021/06/18 00:45:20;;;;;;;13.57;12.05;;;23.50;93.00;;;;;;5077608;28;20032;-39
2021/06/18 00:47:54;;;;;;;13.50;11.82;;;23.40;93.00;;;;;;5088503;28;20663;-39
2021/06/18 00:50:29;;;;;;;13.80;12.32;;;23.40;93.10;;;;;;5076212;28;20024;-40
2021/06/18 00:52:55;;;;;;;14.60;12.48;;;23.40;93.10;;;;;;5088530;28;20463;-38
2021/06/18 00:55:21;;;;;;;16.70;13.30;;;23.40;93.30;;;;;;5075783;28;20062;-38
2021/06/18 00:57:47;;;;;;;13.88;12.48;;;23.30;93.20;;;;;;5079574;28;20064;-39
2021/06/18 01:00:16;;;;;;;12.73;11.43;;;23.30;93.30;;;;;;5080283;28;20059;-40
2021/06/18 01:02:41;;;;;;;15.27;13.82;;;23.20;93.40;;;;;;5068441;28;20016;-39
2021/06/18 01:05:13;;;;;;;15.07;13.48;;;23.20;93.40;;;;;;5077813;28;20023;-39
2021/06/18 01:07:49;;;;;;;14.65;12.95;;;23.20;93.50;;;;;;5069462;28;20045;-40
2021/06/18 01:10:46;;;;;;;14.70;13.13;;;23.10;93.50;;;;;;5077148;28;20020;-38
2021/06/18 01:13:30;;;;;;;17.58;12.68;;;23.10;93.60;;;;;;5048437;28;20079;-37
2021/06/18 01:16:05;;;;;;;13.95;12.55;;;23.10;93.70;;;;;;5077298;28;20488;-38
2021/06/18 01:18:41;;;;;;;14.80;13.23;;;23.10;93.70;;;;;;5068399;28;20021;-38
2021/06/18 01:21:19;;;;;;;14.20;12.77;;;23.10;93.80;;;;;;5080525;28;20039;-39
2021/06/18 01:23:57;;;;;;;13.85;12.45;;;23.00;93.80;;;;;;5067656;28;20032;-37
2021/06/18 01:26:23;;;;;;;13.00;11.65;;;23.00;93.90;;;;;;5080458;28;20107;-39
2021/06/18 01:28:53;;;;;;;14.57;13.07;;;23.00;93.90;;;;;;5067379;28;20444;-38
2021/06/18 01:31:23;;;;;;;15.88;13.88;;;23.00;93.90;;;;;;5080750;28;20324;-36
2021/06/18 01:33:55;;;;;;;14.10;12.75;;;23.00;94.00;;;;;;5047473;28;20478;-39
2021/06/18 01:36:22;;;;;;;16.35;13.45;;;22.90;94.00;;;;;;5073948;28;20031;-40
2021/06/18 01:38:53;;;;;;;14.35;12.93;;;22.90;94.10;;;;;;5068826;28;20038;-39
2021/06/18 01:41:22;;;;;;;17.20;15.32;;;22.80;94.20;;;;;;5077322;28;20020;-40
2021/06/18 01:43:50;;;;;;;16.27;13.38;;;22.80;94.30;;;;;;5069655;28;20024;-38
2021/06/18 01:46:20;;;;;;;14.02;12.52;;;22.80;94.30;;;;;;5075096;28;20111;-37
2021/06/18 01:48:54;;;;;;;14.77;13.27;;;22.80;94.40;;;;;;5071964;28;20075;-39
2021/06/18 01:51:20;;;;;;;13.57;12.30;;;22.70;94.40;;;;;;5073647;28;20050;-40
2021/06/18 01:53:50;;;;;;;15.40;13.30;;;22.70;94.50;;;;;;5073558;28;20316;-38
2021/06/18 01:56:18;;;;;;;13.68;12.25;;;22.70;94.60;;;;;;5071862;28;20085;-39
2021/06/18 01:58:48;;;;;;;13.23;11.93;;;22.70;94.60;;;;;;5071007;28;20193;-38
2021/06/18 02:01:15;;;;;;;16.02;13.65;;;22.70;94.60;;;;;;5069999;28;20043;-38
2021/06/18 02:03:42;;;;;;;14.90;12.65;;;22.70;94.60;;;;;;5075758;28;20028;-39
2021/06/18 02:06:08;;;;;;;14.43;12.90;;;22.80;94.60;;;;;;5067646;28;20341;-39
2021/06/18 02:08:34;;;;;;;18.63;16.65;;;22.80;94.50;;;;;;5078391;28;20020;-39
2021/06/18 02:11:01;;;;;;;16.98;14.98;;;22.80;94.60;;;;;;5067468;28;20025;-39
2021/06/18 02:13:34;;;;;;;15.80;14.20;;;22.80;94.90;;;;;;5078649;28;20032;-38
2021/06/18 02:16:00;;;;;;;14.55;13.05;;;22.80;95.00;;;;;;5067067;28;20040;-39
2021/06/18 02:18:28;;;;;;;14.63;13.15;;;22.70;94.70;;;;;;5078615;28;20570;-38
2021/06/18 02:20:57;;;;;;;12.40;11.18;;;22.80;94.70;;;;;;5066495;28;20132;-39
2021/06/18 02:23:27;;;;;;;13.60;11.55;;;22.80;94.70;;;;;;5079982;28;20031;-40
2021/06/18 02:25:53;;;;;;;15.55;13.43;;;22.80;94.60;;;;;;5066305;28;20035;-37
2021/06/18 02:28:21;;;;;;;16.15;13.32;;;22.80;94.60;;;;;;5079489;28;20024;-40
2021/06/18 02:30:47;;;;;;;16.40;14.70;;;22.90;94.60;;;;;;5067112;28;20099;-38
2021/06/18 02:33:13;;;;;;;14.02;12.63;;;22.90;94.60;;;;;;5076828;28;20119;-36
2021/06/18 02:35:40;;;;;;;14.38;12.90;;;22.90;94.70;;;;;;5068638;28;20047;-39
2021/06/18 02:38:07;;;;;;;14.40;12.60;;;22.90;94.70;;;;;;5074712;28;20016;-39
2021/06/18 02:40:32;;;;;;;14.95;13.45;;;22.80;94.90;;;;;;5070528;28;20051;-38
2021/06/18 02:42:58;;;;;;;15.25;13.70;;;22.80;94.70;;;;;;5072197;28;20447;-39
2021/06/18 02:45:24;;;;;;;15.57;14.07;;;22.90;94.80;;;;;;5073423;28;20024;-38
2021/06/18 02:48:02;;;;;;;15.20;13.70;;;22.90;94.70;;;;;;5068955;28;20448;-39
2021/06/18 02:50:50;;;;;;;16.67;15.00;;;22.80;94.70;;;;;;5074711;28;20028;-37
2021/06/18 02:53:24;;;;;;;15.80;14.20;;;22.80;94.80;;;;;;5071687;28;20044;-37
2021/06/18 02:56:05;;;;;;;16.00;14.40;;;22.80;94.80;;;;;;5072510;28;20131;-39
2021/06/18 02:58:36;;;;;;;13.68;12.07;;;22.80;94.80;;;;;;5072964;28;20025;-39
2021/06/18 03:01:06;;;;;;;16.88;15.18;;;22.70;94.80;;;;;;5080436;28;20051;-38
2021/06/18 03:03:45;;;;;;;15.48;13.98;;;22.70;95.00;;;;;;5081772;28;20023;-39
2021/06/18 03:06:15;;;;;;;16.77;15.05;;;22.60;95.10;;;;;;5080492;28;20209;-40
2021/06/18 03:08:45;;;;;;;17.20;15.27;;;22.60;95.10;;;;;;5081321;28;20114;-39
2021/06/18 03:11:12;;;;;;;16.92;15.23;;;22.60;95.20;;;;;;5078989;28;20104;-38
2021/06/18 03:13:43;;;;;;;14.82;13.43;;;22.60;95.20;;;;;;5083899;28;20036;-39
2021/06/18 03:16:11;;;;;;;20.50;18.40;;;22.60;95.20;;;;;;5079373;28;20114;-38
2021/06/18 03:18:41;;;;;;;17.95;16.08;;;22.50;95.30;;;;;;5089583;28;20012;-40
2021/06/18 03:21:09;;;;;;;17.48;15.68;;;22.50;95.40;;;;;;5068965;28;20103;-38
2021/06/18 03:23:39;;;;;;;17.77;15.98;;;22.50;95.50;;;;;;5088830;28;20101;-39
2021/06/18 03:26:06;;;;;;;17.35;15.55;;;22.40;95.50;;;;;;5079239;28;20028;-40
2021/06/18 03:28:33;;;;;;;18.10;16.25;;;22.40;95.50;;;;;;5089481;28;20047;-39
2021/06/18 03:31:01;;;;;;;18.27;16.48;;;22.40;95.60;;;;;;5077490;28;20048;-37
2021/06/18 03:33:28;;;;;;;20.98;18.77;;;22.40;95.70;;;;;;5070342;28;20035;-39
2021/06/18 03:35:55;;;;;;;20.35;18.35;;;22.40;95.80;;;;;;5081755;28;20103;-39
2021/06/18 03:38:21;;;;;;;18.42;16.48;;;22.40;95.90;;;;;;5070447;28;20038;-39
2021/06/18 03:40:48;;;;;;;21.45;19.25;;;22.40;95.90;;;;;;5082486;28;20035;-39
2021/06/18 03:43:15;;;;;;;19.25;17.25;;;22.30;95.90;;;;;;5069491;28;20056;-39
2021/06/18 03:45:44;;;;;;;16.40;14.70;;;22.30;96.00;;;;;;5080707;28;20394;-38
2021/06/18 03:48:16;;;;;;;17.10;15.35;;;22.40;96.00;;;;;;5070086;28;20028;-39
2021/06/18 03:50:42;;;;;;;16.27;14.65;;;22.40;95.90;;;;;;5079020;28;20516;-39
2021/06/18 03:53:09;;;;;;;17.35;15.10;;;22.50;95.90;;;;;;5072558;28;20062;-37
2021/06/18 03:55:36;;;;;;;15.93;14.40;;;22.60;95.80;;;;;;5077437;28;20016;-39
2021/06/18 03:58:04;;;;;;;23.13;19.83;;;22.70;95.70;;;;;;5082391;28;20039;-40
2021/06/18 04:00:34;;;;;;;21.35;18.92;;;22.70;95.90;;;;;;5083934;28;20069;-40
2021/06/18 04:03:01;;;;;;;19.38;17.38;;;22.60;96.00;;;;;;5082918;28;20032;-37
2021/06/18 04:05:29;;;;;;;20.17;18.00;;;22.60;96.00;;;;;;5085974;28;20475;-37
2021/06/18 04:07:55;;;;;;;20.27;18.20;;;22.60;96.00;;;;;;5080952;28;20023;-39
2021/06/18 04:10:21;;;;;;;15.35;13.73;;;22.60;96.00;;;;;;5088221;28;20030;-39
2021/06/18 04:12:50;;;;;;;14.40;12.98;;;22.60;96.00;;;;;;5078316;28;20012;-39
2021/06/18 04:15:17;;;;;;;25.98;20.42;;;22.70;96.00;;;;;;5088228;28;20101;-38
2021/06/18 04:17:43;;;;;;;22.00;19.65;;;22.70;96.50;;;;;;5076687;28;20131;-38
2021/06/18 04:20:10;;;;;;;26.63;23.83;;;22.60;96.70;;;;;;5069521;28;20044;-42
2021/06/18 04:22:36;;;;;;;29.33;26.35;;;22.50;97.40;;;;;;5081506;28;20340;-36
2021/06/18 04:25:04;;;;;;;25.10;22.60;;;22.30;98.70;;;;;;5068472;28;20032;-39
2021/06/18 04:27:30;;;;;;;18.30;16.20;;;21.90;98.70;;;;;;5079810;28;20078;-37
2021/06/18 04:29:55;;;;;;;16.83;15.13;;;21.60;99.00;;;;;;5066740;28;20033;-38
2021/06/18 04:32:21;;;;;;;14.32;12.93;;;21.50;99.90;;;;;;5079901;28;20428;-39
2021/06/18 04:34:47;;;;;;;10.68;9.00;;;21.50;99.80;;;;;;5068739;28;20050;-40
2021/06/18 04:37:16;;;;;;;14.18;12.68;;;21.50;99.70;;;;;;5077633;28;20028;-39
2021/06/18 04:39:41;;;;;;;12.30;11.02;;;21.50;99.90;;;;;;5070769;28;20048;-40
2021/06/18 04:42:07;;;;;;;10.55;9.45;;;21.50;99.90;;;;;;5075904;28;20020;-36
2021/06/18 04:44:32;;;;;;;10.55;9.32;;;21.50;99.90;;;;;;5074520;28;20476;-38
2021/06/18 04:46:58;;;;;;;14.45;13.05;;;21.50;99.90;;;;;;5072999;28;20012;-39
2021/06/18 04:49:24;;;;;;;20.73;18.73;;;21.50;99.90;;;;;;5076925;28;20024;-38
2021/06/18 04:51:49;;;;;;;19.55;17.48;;;21.50;99.90;;;;;;5070470;28;20107;-39
2021/06/18 04:54:15;;;;;;;29.67;26.60;;;21.40;99.90;;;;;;5078699;28;20075;-38
2021/06/18 04:56:41;;;;;;;34.85;26.80;;;21.30;99.90;;;;;;5070267;28;20016;-42
2021/06/18 04:59:07;;;;;;;36.63;23.92;;;21.00;99.90;;;;;;5069606;28;20044;-42
2021/06/18 05:01:33;;;;;;;30.42;23.05;;;20.70;99.90;;;;;;5071012;28;20027;-43
2021/06/18 05:03:59;;;;;;;23.90;20.33;;;20.50;99.90;;;;;;5076750;28;20099;-43
2021/06/18 05:06:25;;;;;;;27.83;20.55;;;20.40;99.90;;;;;;5089531;28;20028;-44
2021/06/18 05:08:54;;;;;;;23.98;21.17;;;20.30;99.90;;;;;;5075557;28;20368;-43
2021/06/18 05:11:22;;;;;;;24.10;20.85;;;20.30;99.90;;;;;;5089323;28;20112;-43
2021/06/18 05:13:51;;;;;;;29.48;23.17;;;20.20;99.90;;;;;;5075217;28;20234;-44
2021/06/18 05:16:17;;;;;;;24.40;21.83;;;20.30;99.90;;;;;;5088950;28;20031;-44
2021/06/18 05:18:42;;;;;;;24.75;22.15;;;20.20;99.90;;;;;;5078032;28;20024;-44
2021/06/18 05:21:08;;;;;;;26.20;22.55;;;20.30;99.90;;;;;;5086641;28;20096;-43
2021/06/18 05:23:33;;;;;;;27.52;21.50;;;20.30;99.90;;;;;;5080761;28;20029;-43
2021/06/18 05:25:59;;;;;;;24.45;20.88;;;20.30;99.90;;;;;;5083461;28;20032;-43
2021/06/18 05:28:25;;;;;;;21.98;19.63;;;20.40;99.90;;;;;;5082758;28;20017;-42
2021/06/18 05:30:50;;;;;;;22.20;19.95;;;20.50;99.90;;;;;;5081359;28;20032;-43
2021/06/18 05:33:16;;;;;;;26.58;23.00;;;20.60;99.90;;;;;;5086372;28;20465;-43
2021/06/18 05:35:44;;;;;;;27.73;24.83;;;20.60;99.90;;;;;;5077806;28;20020;-43
2021/06/18 05:38:10;;;;;;;25.95;23.45;;;20.60;99.90;;;;;;5086081;28;20439;-42
2021/06/18 05:40:36;;;;;;;32.60;29.30;;;20.60;99.90;;;;;;5076145;28;20047;-42
2021/06/18 05:43:03;;;;;;;30.67;27.55;;;20.60;99.90;;;;;;5085918;28;20491;-43
2021/06/18 05:45:32;;;;;;;29.92;26.70;;;20.50;99.90;;;;;;5076322;28;20111;-42
2021/06/18 05:47:58;;;;;;;29.15;26.23;;;20.50;99.90;;;;;;5068366;28;20036;-42
2021/06/18 05:50:23;;;;;;;28.40;25.15;;;20.50;99.90;;;;;;5070996;28;20020;-43
2021/06/18 05:52:49;;;;;;;26.55;23.83;;;20.50;99.90;;;;;;5060758;28;20020;-43
2021/06/18 05:55:14;;;;;;;28.20;25.08;;;20.50;99.90;;;;;;5079349;28;20182;-43
2021/06/18 05:57:42;;;;;;;30.52;27.42;;;20.60;99.90;;;;;;5070670;28;20035;-43
2021/06/18 06:00:10;;;;;;;30.55;27.45;;;20.60;99.90;;;;;;5075479;28;20047;-43
2021/06/18 06:02:36;;;;;;;24.95;22.45;;;20.60;99.90;;;;;;5085756;28;20024;-43
2021/06/18 06:05:02;;;;;;;28.42;25.60;;;20.50;99.90;;;;;;5077274;28;20116;-43
2021/06/18 06:07:27;;;;;;;27.00;24.15;;;20.60;99.90;;;;;;5083597;28;20066;-42
2021/06/18 06:09:53;;;;;;;31.10;27.90;;;20.60;99.90;;;;;;5080699;28;20542;-42
2021/06/18 06:12:18;;;;;;;27.90;25.00;;;20.60;99.90;;;;;;5079643;28;20436;-42
2021/06/18 06:14:44;;;;;;;27.67;25.10;;;20.60;99.90;;;;;;5069542;28;20483;-42
2021/06/18 06:17:09;;;;;;;27.05;24.08;;;20.70;99.90;;;;;;5076599;28;20035;-42
2021/06/18 06:19:35;;;;;;;28.60;25.67;;;20.70;99.90;;;;;;5068061;28;20508;-42
2021/06/18 06:22:02;;;;;;;31.70;28.63;;;20.70;99.90;;;;;;5074646;28;20045;-43
2021/06/18 06:24:27;;;;;;;30.90;27.83;;;20.80;99.90;;;;;;5066066;28;20131;-42
2021/06/18 06:26:53;;;;;;;26.42;23.83;;;20.90;99.90;;;;;;5078200;28;20120;-42
2021/06/18 06:29:19;;;;;;;28.17;25.48;;;21.00;99.90;;;;;;5067088;28;20032;-43
2021/06/18 06:31:45;;;;;;;28.52;25.77;;;21.10;99.90;;;;;;5070264;28;20428;-42
2021/06/18 06:34:11;;;;;;;25.25;22.83;;;21.10;99.90;;;;;;5071292;28;20024;-43
2021/06/18 06:36:43;;;;;;;26.88;24.30;;;21.20;99.90;;;;;;5071876;28;20017;-42
2021/06/18 06:39:08;;;;;;;29.33;26.65;;;21.20;99.90;;;;;;5073967;28;20025;-42
2021/06/18 06:41:35;;;;;;;24.83;22.40;;;21.30;99.90;;;;;;5078920;28;20149;-42
2021/06/18 06:44:00;;;;;;;23.52;21.08;;;21.40;99.90;;;;;;5068042;28;20509;-41
2021/06/18 06:46:26;;;;;;;23.00;20.80;;;21.40;99.90;;;;;;5075089;28;20032;-42
2021/06/18 06:48:51;;;;;;;19.63;17.75;;;21.50;99.90;;;;;;5070804;28;20017;-43
2021/06/18 06:51:17;;;;;;;22.58;20.00;;;21.60;99.90;;;;;;5070355;28;20062;-42
2021/06/18 06:53:43;;;;;;;20.98;18.98;;;21.60;99.90;;;;;;5079935;28;20031;-42
2021/06/18 06:56:09;;;;;;;21.73;19.65;;;21.70;99.90;;;;;;5083714;28;20032;-42
2021/06/18 06:58:36;;;;;;;18.55;16.75;;;21.80;99.90;;;;;;5066883;28;20028;-42
2021/06/18 07:01:01;;;;;;;19.42;17.67;;;21.80;99.90;;;;;;5067151;28;20128;-41
2021/06/18 07:03:28;;;;;;;17.15;15.48;;;21.80;99.90;;;;;;5078235;28;20111;-42
2021/06/18 07:05:53;;;;;;;18.38;16.55;;;21.90;99.90;;;;;;5068121;28;20079;-43
2021/06/18 07:08:22;;;;;;;16.08;14.57;;;21.90;99.90;;;;;;5078097;28;20477;-43
2021/06/18 07:10:48;;;;;;;18.70;17.02;;;21.90;99.90;;;;;;5086654;28;20105;-43
2021/06/18 07:13:14;;;;;;;19.02;17.23;;;21.80;99.90;;;;;;5068758;28;20530;-42
2021/06/18 07:15:40;;;;;;;19.42;17.55;;;21.90;99.90;;;;;;5086961;28;20040;-43
2021/06/18 07:18:06;;;;;;;18.15;16.35;;;21.90;99.90;;;;;;5073746;28;20031;-42
2021/06/18 07:20:32;;;;;;;13.10;12.00;;;22.00;99.90;;;;;;5086644;28;20067;-42
2021/06/18 07:22:57;;;;;;;16.45;15.05;;;22.10;99.90;;;;;;5074671;28;20495;-42
2021/06/18 07:25:23;;;;;;;18.00;16.33;;;22.20;99.90;;;;;;5085809;28;20036;-42
2021/06/18 07:27:48;;;;;;;18.13;16.42;;;22.30;99.90;;;;;;5077170;28;20016;-42
2021/06/18 07:30:14;;;;;;;15.80;14.30;;;22.30;99.90;;;;;;5082138;28;20487;-42
2021/06/18 07:32:40;;;;;;;16.75;15.15;;;22.40;99.90;;;;;;5067753;28;20108;-43
2021/06/18 07:35:06;;;;;;;20.58;18.48;;;22.40;99.90;;;;;;5072878;28;20456;-42
2021/06/18 07:37:31;;;;;;;20.67;18.75;;;22.40;99.90;;;;;;5069790;28;20032;-43
2021/06/18 07:39:57;;;;;;;20.40;18.50;;;22.40;99.90;;;;;;5074957;28;20032;-43
2021/06/18 07:42:28;;;;;;;22.15;19.73;;;22.40;99.90;;;;;;5067260;28;20021;-43
2021/06/18 07:44:56;;;;;;;19.65;17.85;;;22.30;99.90;;;;;;5063941;28;20039;-43
2021/06/18 07:47:23;;;;;;;17.35;15.75;;;22.20;99.90;;;;;;5085350;28;20025;-43
2021/06/18 07:49:48;;;;;;;21.67;19.58;;;22.20;99.90;;;;;;5074467;28;20020;-43
2021/06/18 07:52:14;;;;;;;22.02;20.02;;;22.20;99.90;;;;;;5085484;28;20035;-42
2021/06/18 07:54:40;;;;;;;22.67;20.15;;;22.10;99.90;;;;;;5074523;28;20049;-42
2021/06/18 07:57:05;;;;;;;25.67;23.15;;;22.10;99.90;;;;;;5086180;28;20016;-42
2021/06/18 07:59:31;;;;;;;23.42;21.02;;;22.00;99.90;;;;;;5073473;28;20436;-42
2021/06/18 08:01:57;;;;;;;23.55;21.35;;;22.00;99.90;;;;;;5086417;28;20041;-43
2021/06/18 08:04:22;;;;;;;22.58;20.30;;;22.00;99.90;;;;;;5075174;28;20131;-43
2021/06/18 08:06:48;;;;;;;23.70;21.45;;;22.00;99.90;;;;;;5087925;28;20028;-41
2021/06/18 08:09:13;;;;;;;26.73;24.13;;;22.00;99.90;;;;;;5081411;28;20078;-42
2021/06/18 08:11:39;;;;;;;27.40;24.70;;;22.00;99.90;;;;;;5086280;28;20052;-41
2021/06/18 08:14:05;;;;;;;26.10;23.67;;;21.90;99.90;;;;;;5083993;28;20017;-42
2021/06/18 08:16:30;;;;;;;23.80;21.42;;;22.00;99.90;;;;;;5083227;28;20028;-41
2021/06/18 08:18:56;;;;;;;29.58;26.58;;;22.00;99.90;;;;;;5083758;28;20464;-42
2021/06/18 08:21:21;;;;;;;27.90;25.13;;;22.00;99.90;;;;;;5066777;28;20047;-42
2021/06/18 08:23:47;;;;;;;29.13;26.33;;;22.00;99.90;;;;;;5062159;28;20081;-42
2021/06/18 08:26:12;;;;;;;28.80;25.70;;;22.00;99.90;;;;;;5078669;28;20058;-41
2021/06/18 08:28:38;;;;;;;31.38;28.27;;;21.90;99.90;;;;;;5087987;28;20040;-41
2021/06/18 08:31:04;;;;;;;31.38;27.45;;;21.90;99.90;;;;;;5077427;28;20023;-43
2021/06/18 08:33:33;;;;;;;33.60;30.15;;;21.80;99.90;;;;;;5089474;28;20020;-43
2021/06/18 08:35:58;;;;;;;35.35;31.73;;;21.80;99.90;;;;;;5080475;28;20024;-42
2021/06/18 08:38:24;;;;;;;33.90;30.35;;;21.70;99.90;;;;;;5066240;28;20519;-43
2021/06/18 08:40:52;;;;;;;33.45;30.08;;;21.60;99.90;;;;;;5081064;28;20047;-43
2021/06/18 08:43:18;;;;;;;29.25;26.33;;;21.60;99.90;;;;;;5068151;28;20040;-42
2021/06/18 08:45:44;;;;;;;34.78;31.17;;;21.70;99.90;;;;;;5080081;28;20265;-43
2021/06/18 08:48:10;;;;;;;35.60;31.90;;;21.70;99.90;;;;;;5070181;28;20557;-42
2021/06/18 08:50:36;;;;;;;33.80;29.67;;;21.80;99.90;;;;;;5077608;28;20107;-42
2021/06/18 08:53:03;;;;;;;34.33;30.83;;;21.90;99.90;;;;;;5071672;28;20028;-41
2021/06/18 08:55:32;;;;;;;31.58;28.38;;;22.00;99.90;;;;;;5075460;28;20016;-41
2021/06/18 08:58:05;;;;;;;28.30;25.50;;;22.10;99.90;;;;;;5078442;28;20037;-42
2021/06/18 09:00:31;;;;;;;28.33;25.42;;;22.30;99.90;;;;;;5082906;28;20049;-41
2021/06/18 09:02:57;;;;;;;28.17;25.27;;;22.50;99.90;;;;;;5072970;28;20025;-42
2021/06/18 09:05:23;;;;;;;26.58;23.88;;;22.60;99.90;;;;;;5071149;28;20020;-43
2021/06/18 09:07:50;;;;;;;23.35;21.10;;;22.80;99.90;;;;;;5078843;28;20028;-43
2021/06/18 09:10:41;;;;;;;23.60;21.20;;;23.00;99.90;;;;;;5087130;28;20020;-43
2021/06/18 09:13:07;;;;;;;23.23;20.98;;;23.20;99.90;;;;;;5070314;28;20134;-43
2021/06/18 09:15:33;;;;;;;23.27;20.98;;;23.40;99.90;;;;;;5087165;28;20022;-42
2021/06/18 09:18:24;;;;;;;23.38;20.88;;;23.60;99.90;;;;;;5076789;28;20032;-42
2021/06/18 09:21:02;;;;;;;21.80;19.67;;;23.70;99.90;;;;;;5084110;28;20556;-42
2021/06/18 09:23:33;;;;;;;24.40;22.00;;;23.80;99.90;;;;;;5077677;28;20031;-42
2021/06/18 09:26:29;;;;;;;25.23;22.87;;;23.90;99.90;;;;;;5062577;28;20123;-41
2021/06/18 09:28:55;;;;;;;22.02;19.98;;;24.00;99.90;;;;;;5073729;28;20058;-42
2021/06/18 09:31:26;;;;;;;26.60;23.90;;;23.90;99.90;;;;;;5071949;28;20029;-42
2021/06/18 09:33:52;;;;;;;25.95;23.45;;;23.80;99.90;;;;;;5076075;28;20028;-42
2021/06/18 09:36:20;;;;;;;26.20;23.67;;;23.80;99.90;;;;;;5069181;28;20411;-42
2021/06/18 09:38:49;;;;;;;24.02;21.63;;;23.70;99.90;;;;;;5077986;28;20592;-42
2021/06/18 09:41:40;;;;;;;21.73;19.60;;;23.70;99.90;;;;;;5068889;28;20186;-42
2021/06/18 09:44:11;;;;;;;21.98;19.80;;;23.70;99.90;;;;;;5069699;28;20032;-43
2021/06/18 09:46:43;;;;;;;23.70;21.40;;;23.70;99.90;;;;;;5086775;28;20020;-42
2021/06/18 09:49:37;;;;;;;25.05;22.55;;;23.70;99.90;;;;;;5067633;28;20111;-42
2021/06/18 09:52:04;;;;;;;24.02;21.55;;;23.70;99.90;;;;;;5067441;28;20395;-45
2021/06/18 09:54:32;;;;;;;20.52;18.58;;;23.70;99.90;;;;;;5074960;28;20024;-42
2021/06/18 09:57:12;;;;;;;21.25;19.25;;;23.80;99.90;;;;;;5067403;28;20083;-43
2021/06/18 09:59:48;;;;;;;20.00;17.90;;;23.70;99.90;;;;;;5082724;28;20071;-42
2021/06/18 10:02:13;;;;;;;15.70;14.10;;;23.80;99.90;;;;;;5044527;28;20055;-42
2021/06/18 10:04:40;;;;;;;19.65;17.65;;;23.80;99.90;;;;;;5037721;28;20096;-42
2021/06/18 10:07:08;;;;;;;21.98;19.70;;;24.00;99.90;;;;;;5045570;28;20104;-42
2021/06/18 10:09:34;;;;;;;21.05;18.95;;;24.00;99.90;;;;;;5036639;28;20052;-42
2021/06/18 10:12:01;;;;;;;18.17;16.35;;;24.10;99.90;;;;;;5046046;28;20104;-42
2021/06/18 10:14:28;;;;;;;17.80;16.10;;;24.10;99.90;;;;;;5034038;28;20489;-42
2021/06/18 10:16:53;;;;;;;16.50;14.90;;;24.10;99.90;;;;;;5018707;28;20037;-42
2021/06/18 10:19:20;;;;;;;16.23;14.68;;;24.20;99.90;;;;;;5031800;28;20117;-41
2021/06/18 10:22:04;;;;;;;13.27;11.93;;;24.20;99.90;;;;;;5046484;28;20472;-42
2021/06/18 10:24:51;;;;;;;15.38;12.27;;;24.30;99.90;;;;;;5034136;28;20028;-42
2021/06/18 10:27:19;;;;;;;15.88;14.27;;;24.40;99.90;;;;;;5047831;28;20032;-41
2021/06/18 10:29:47;;;;;;;16.08;14.57;;;24.50;99.90;;;;;;5034233;28;20069;-41
2021/06/18 10:32:29;;;;;;;12.20;11.00;;;24.50;99.90;;;;;;5046279;28;20473;-42
2021/06/18 10:34:55;;;;;;;15.88;14.30;;;24.50;99.90;;;;;;5034013;28;20511;-42
2021/06/18 10:37:24;;;;;;;20.42;18.52;;;24.60;99.90;;;;;;5047131;28;20033;-41
2021/06/18 10:39:52;;;;;;;17.25;15.65;;;24.60;99.90;;;;;;5034069;28;20045;-42
2021/06/18 10:42:17;;;;;;;16.63;15.05;;;24.70;99.90;;;;;;5047205;28;20483;-42
2021/06/18 10:44:44;;;;;;;14.20;12.82;;;24.70;99.90;;;;;;5034949;28;20124;-42
2021/06/18 10:47:22;;;;;;;14.70;13.35;;;24.70;99.90;;;;;;5044984;28;20098;-42
2021/06/18 10:49:47;;;;;;;14.32;12.82;;;24.70;99.90;;;;;;5032168;28;20033;-42
2021/06/18 10:52:18;;;;;;;15.40;13.85;;;24.80;99.90;;;;;;5026565;28;20864;-42
2021/06/18 10:54:51;;;;;;;16.45;14.65;;;24.90;99.90;;;;;;5033588;28;20039;-42
2021/06/18 10:57:21;;;;;;;13.32;11.93;;;24.90;99.90;;;;;;5028775;28;20747;-42
2021/06/18 10:59:52;;;;;;;12.85;11.73;;;25.00;99.90;;;;;;5034780;28;20037;-42
2021/06/18 11:02:20;;;;;;;13.60;12.30;;;25.10;99.90;;;;;;5081475;28;20118;-41
2021/06/18 11:04:48;;;;;;;15.75;14.15;;;25.20;99.90;;;;;;5079800;28;20032;-42
2021/06/18 11:07:29;;;;;;;19.40;17.30;;;25.40;99.90;;;;;;5079717;28;20375;-42
2021/06/18 11:10:03;;;;;;;17.63;15.80;;;25.50;99.90;;;;;;5080366;28;20021;-43
2021/06/18 11:12:29;;;;;;;17.48;15.82;;;25.60;99.90;;;;;;5080994;28;20438;-42
2021/06/18 11:15:18;;;;;;;15.32;13.93;;;25.60;99.90;;;;;;5082092;28;20017;-42
2021/06/18 11:17:52;;;;;;;16.30;14.80;;;25.70;99.90;;;;;;5080196;28;20043;-43
2021/06/18 11:20:22;;;;;;;16.17;14.68;;;25.60;99.90;;;;;;5080004;28;20033;-42
2021/06/18 11:22:56;;;;;;;17.20;14.85;;;25.60;99.90;;;;;;5080341;28;20039;-42
2021/06/18 11:25:39;;;;;;;13.63;12.43;;;25.50;99.90;;;;;;5081267;28;20563;-42
2021/06/18 11:28:20;;;;;;;12.45;11.40;;;25.50;99.90;;;;;;5081516;28;20352;-42
2021/06/18 11:31:19;;;;;;;14.82;13.43;;;25.50;99.90;;;;;;5079088;28;20451;-42
2021/06/18 11:33:51;;;;;;;11.50;10.60;;;25.60;99.90;;;;;;5085608;28;20024;-42
2021/06/18 11:36:20;;;;;;;;;;;25.60;99.90;;;;;;5077586;28;20489;-42
2021/06/18 11:38:59;;;;;;;19.98;17.90;;;25.80;99.90;;;;;;5088881;28;19957;-42
2021/06/18 11:41:31;;;;;;;16.67;15.07;;;25.90;99.90;;;;;;5080358;28;20068;-43
2021/06/18 11:43:58;;;;;;;13.93;12.70;;;26.00;99.90;;;;;;5088177;28;20356;-42
2021/06/18 11:46:26;;;;;;;12.68;11.45;;;26.10;99.90;;;;;;5082373;28;20035;-41
2021/06/18 11:48:54;;;;;;;14.82;13.27;;;26.20;99.90;;;;;;5086001;28;20107;-42
2021/06/18 11:51:29;;;;;;;14.32;12.93;;;26.30;99.90;;;;;;5084268;28;20339;-42
2021/06/18 11:53:59;;;;;;;13.88;12.57;;;26.40;99.90;;;;;;5084984;28;20028;-42
2021/06/18 11:56:32;;;;;;;14.27;12.88;;;26.40;99.90;;;;;;5084569;28;20047;-42
2021/06/18 11:58:57;;;;;;;12.30;11.10;;;26.30;99.90;;;;;;5073116;28;20125;-43
2021/06/18 12:01:28;;;;;;;11.52;10.52;;;26.30;99.90;;;;;;5073973;28;20076;-42
2021/06/18 12:03:57;;;;;;;10.02;9.05;;;26.30;99.90;;;;;;5077965;28;20031;-42
2021/06/18 12:06:31;;;;;;;10.77;9.70;;;26.30;99.90;;;;;;5072092;28;20037;-42
2021/06/18 12:09:11;;;;;;;14.02;12.52;;;26.30;99.90;;;;;;5078534;28;20055;-43
2021/06/18 12:11:53;;;;;;;13.68;12.35;;;26.40;99.90;;;;;;5072852;28;20017;-41
2021/06/18 12:14:18;;;;;;;;;;;26.40;99.90;;;;;;5077975;28;20020;-42
2021/06/18 12:16:46;;;;;;;12.38;11.18;;;26.50;99.90;;;;;;5071683;28;19953;-42
2021/06/18 12:19:24;;;;;;;9.40;8.60;;;26.50;99.90;;;;;;5079838;28;20030;-41
2021/06/18 12:22:11;;;;;;;9.27;7.78;;;26.50;99.90;;;;;;5071094;28;20492;-42
2021/06/18 12:24:41;;;;;;;8.38;7.32;;;26.60;99.90;;;;;;5077209;28;20024;-41
2021/06/18 12:27:26;;;;;;;7.28;6.63;;;26.60;99.90;;;;;;5071755;28;20017;-42
2021/06/18 12:29:55;;;;;;;10.20;9.32;;;26.60;99.90;;;;;;5076155;28;20028;-42
2021/06/18 12:32:23;;;;;;;7.97;7.18;;;26.80;99.90;;;;;;5072146;28;20032;-42
2021/06/18 12:34:51;;;;;;;8.15;7.35;;;26.90;99.90;;;;;;5085253;28;20043;-43
2021/06/18 12:37:20;;;;;;;7.50;6.50;;;26.90;99.90;;;;;;5055492;28;20031;-43